This is the latest recevied weather packets stored in our database for station/object KU4DD. If no packets are shown the sender has not sent any weather packets the latest 10 day(s).
| Time | Temp. | Humidity | Pressure | Rain* | Wind** | Luminosity | Snow |
|---|---|---|---|---|---|---|---|
| 1777816904 | 20° C | 54% | 1016.9 hPa | 0 mm | - | - | - |
| 1777815644 | 20.56° C | 53% | 1016.9 hPa | 0 mm | - | - | - |
| 1777812815 | 20.56° C | 55% | 1016.9 hPa | 0 mm | - | - | - |
| 1777809668 | 21.67° C | 54% | 1016.3 hPa | 0 mm | - | - | - |
| 1777805604 | 21.67° C | 55% | 1015.2 hPa | 0 mm | - | - | - |
| 1777796500 | 20° C | 57% | 1013.5 hPa | 0 mm | - | - | - |
| 1777796175 | 20° C | 57% | 1013.5 hPa | 0 mm | - | - | - |
| 1777795847 | 20° C | 57% | 1013.5 hPa | 0 mm | - | - | - |
| 1777794283 | 20.56° C | 56% | 1013.2 hPa | 0 mm | - | - | - |
| 1777792393 | 20.56° C | 56% | 1012.9 hPa | 0 mm | - | - | - |
| 1777788325 | 21.67° C | 53% | 1012.2 hPa | 0 mm | - | - | - |
| 1777787998 | 21.11° C | 53% | 1012.5 hPa | 0 mm | - | - | - |
| 1777787046 | 21.67° C | 54% | 1012.5 hPa | 0 mm | - | - | - |
| 1777778893 | 21.11° C | 57% | 1011.9 hPa | 0 mm | - | - | - |
| 1777777634 | 21.11° C | 56% | 1011.5 hPa | 0 mm | - | - | - |
| 1777776371 | 21.67° C | 56% | 1011.2 hPa | 0 mm | - | - | - |
| 1777775733 | 21.67° C | 55% | 1011.5 hPa | 0 mm | - | - | - |
| 1777775087 | 21.67° C | 55% | 1011.2 hPa | 0 mm | - | - | - |
| 1777772880 | 21.67° C | 55% | 1011.2 hPa | 0 mm | - | - | - |
| 1777771612 | 21.67° C | 53% | 1011.2 hPa | 0 mm | - | - | - |
| 1777770368 | 21.67° C | 55% | 1010.8 hPa | 0 mm | - | - | - |
| 1777769730 | 21.67° C | 54% | 1010.5 hPa | 0 mm | - | - | - |
| 1777768793 | 21.67° C | 55% | 1010.5 hPa | 0 mm | - | - | - |
| 1777768165 | 22.22° C | 56% | 1010.2 hPa | 0 mm | - | - | - |
| 1777766323 | 22.22° C | 56% | 1009.8 hPa | 0 mm | - | - | - |
* Rain latest hour (hover to see other rain measurements)
** Current wind speed in m/s (hover to see current wind gust speed)